Time;durP1;ratioP1;P1;durP2;ratioP2;P2;SDS_P1;SDS_P2;PMS_P1;PMS_P2;Temp;Humidity;BMP_temperature;BMP_pressure;BME280_temperature;BME280_humidity;BME280_pressure;Samples;Min_cycle;Max_cycle;Signal;HPM_P1;HPM_P2
2024/03/25 00:00:03;;;;;;;0.60;0.60;;;;;;;3.65;99.90;96089.50;29395;235;63009;-67
2024/03/25 00:00:34;;;;;;;0.60;0.60;;;;;;;3.60;99.78;96097.53;29395;222;63005;-68
2024/03/25 00:01:09;;;;;;;0.60;0.60;;;;;;;3.54;99.86;96093.22;29395;202;63009;-53
2024/03/25 00:01:41;;;;;;;0.57;0.57;;;;;;;3.52;100.00;96095.38;29395;228;63010;-67
2024/03/25 00:02:15;;;;;;;0.60;0.60;;;;;;;3.48;100.00;96095.09;29395;222;63012;-65
2024/03/25 00:02:48;;;;;;;0.60;0.60;;;;;;;3.46;100.00;96096.47;29395;231;63004;-68
2024/03/25 00:03:19;;;;;;;0.60;0.60;;;;;;;3.41;100.00;96088.41;29395;205;63008;-53
2024/03/25 00:03:50;;;;;;;0.60;0.60;;;;;;;3.41;100.00;96091.09;29395;207;63004;-66
2024/03/25 00:04:22;;;;;;;0.60;0.60;;;;;;;3.42;100.00;96095.38;29395;379;63009;-68
2024/03/25 00:04:57;;;;;;;0.60;0.60;;;;;;;3.49;100.00;96094.03;29394;251;63998;-66
2024/03/25 00:05:29;;;;;;;0.60;0.60;;;;;;;3.51;100.00;96094.56;29395;215;63009;-66
2024/03/25 00:06:01;;;;;;;0.60;0.60;;;;;;;3.53;100.00;96092.44;29395;221;63005;-67
2024/03/25 00:06:33;;;;;;;0.60;0.60;;;;;;;3.53;100.00;96092.44;29395;237;63009;-68
2024/03/25 00:07:05;;;;;;;0.60;0.60;;;;;;;3.54;100.00;96098.59;29395;199;63005;-61
2024/03/25 00:07:39;;;;;;;0.60;0.60;;;;;;;3.54;100.00;96093.22;29395;223;63009;-54
2024/03/25 00:08:12;;;;;;;0.60;0.60;;;;;;;3.53;100.00;96091.63;29394;209;64009;-54
2024/03/25 00:08:43;;;;;;;0.80;0.80;;;;;;;3.54;100.00;96093.22;29395;197;63009;-65
2024/03/25 00:09:17;;;;;;;0.60;0.60;;;;;;;3.59;99.53;96096.72;29395;228;63004;-67
2024/03/25 00:09:48;;;;;;;0.60;0.60;;;;;;;3.58;99.89;96097.00;29395;205;63009;-67
2024/03/25 00:10:21;;;;;;;0.60;0.60;;;;;;;3.53;100.00;96102.34;29394;196;64009;-53
2024/03/25 00:10:52;;;;;;;0.60;0.60;;;;;;;3.56;100.00;96093.78;29395;299;63008;-53
2024/03/25 00:11:23;;;;;;;0.60;0.60;;;;;;;3.55;100.00;96092.97;29394;281;64008;-68
2024/03/25 00:11:54;;;;;;;0.60;0.60;;;;;;;3.53;100.00;96096.97;29395;250;63009;-53
2024/03/25 00:12:26;;;;;;;0.60;0.60;;;;;;;3.54;100.00;96095.91;29395;211;63011;-67
2024/03/25 00:12:57;;;;;;;0.60;0.60;;;;;;;3.54;100.00;96095.91;29395;288;63009;-54
2024/03/25 00:13:28;;;;;;;0.60;0.60;;;;;;;3.51;100.00;96091.06;29395;213;63005;-67
2024/03/25 00:14:03;;;;;;;0.60;0.60;;;;;;;3.47;100.00;96090.00;29395;243;63018;-53
2024/03/25 00:14:36;;;;;;;0.60;0.60;;;;;;;3.44;100.00;96094.06;29395;196;63005;-53
2024/03/25 00:15:09;;;;;;;0.55;0.55;;;;;;;3.40;100.00;96097.53;29395;222;63009;-66
2024/03/25 00:15:41;;;;;;;0.60;0.60;;;;;;;3.37;100.00;96099.66;29394;330;64009;-66
2024/03/25 00:16:13;;;;;;;0.60;0.60;;;;;;;3.36;100.00;96095.38;29395;221;63009;-67
2024/03/25 00:16:47;;;;;;;0.60;0.60;;;;;;;3.34;100.00;96092.16;29395;287;63004;-69
2024/03/25 00:17:22;;;;;;;0.60;0.60;;;;;;;3.34;100.00;96100.19;29395;233;63009;-64
2024/03/25 00:17:53;;;;;;;0.60;0.60;;;;;;;3.35;100.00;96095.62;29395;202;63000;-67
2024/03/25 00:18:28;;;;;;;0.50;0.50;;;;;;;3.36;100.00;96097.25;29395;217;63008;-66
2024/03/25 00:18:59;;;;;;;0.50;0.50;;;;;;;3.36;100.00;96095.38;29395;196;63010;-54
2024/03/25 00:19:31;;;;;;;0.60;0.60;;;;;;;3.37;100.00;96097.00;29395;219;63009;-65
2024/03/25 00:20:09;;;;;;;0.60;0.60;;;;;;;3.35;100.00;96096.44;29395;226;63005;-68
2024/03/25 00:20:40;;;;;;;0.60;0.60;;;;;;;3.34;100.00;96094.84;29394;199;64014;-65
2024/03/25 00:21:12;;;;;;;0.60;0.60;;;;;;;3.37;100.00;96094.31;29395;231;63005;-66
2024/03/25 00:21:44;;;;;;;0.60;0.60;;;;;;;3.43;100.00;96102.34;29395;220;63009;-66
2024/03/25 00:22:15;;;;;;;0.60;0.60;;;;;;;3.43;100.00;96092.44;29394;197;64009;-53
2024/03/25 00:22:47;;;;;;;0.60;0.60;;;;;;;3.44;100.00;96093.25;29395;205;63009;-69
2024/03/25 00:23:19;;;;;;;0.60;0.60;;;;;;;3.43;100.00;96094.31;29395;243;63005;-66
2024/03/25 00:23:50;;;;;;;0.60;0.60;;;;;;;3.47;100.00;96098.03;29395;215;63009;-65
2024/03/25 00:24:21;;;;;;;0.60;0.60;;;;;;;3.49;100.00;96093.22;29394;204;64009;-67
2024/03/25 00:24:53;;;;;;;0.60;0.60;;;;;;;3.48;99.78;96092.41;29395;219;63009;-54
2024/03/25 00:25:24;;;;;;;0.60;0.60;;;;;;;3.50;99.68;96097.50;29395;213;63004;-63
2024/03/25 00:25:56;;;;;;;0.55;0.55;;;;;;;3.51;100.00;96099.94;29395;206;63009;-67
2024/03/25 00:26:28;;;;;;;0.60;0.60;;;;;;;3.48;99.82;96100.47;29395;278;63004;-67
2024/03/25 00:26:59;;;;;;;0.60;0.60;;;;;;;3.46;100.00;96097.28;29394;317;64014;-53
2024/03/25 00:27:30;;;;;;;0.60;0.60;;;;;;;3.43;100.00;96097.00;29395;199;63005;-66
2024/03/25 00:28:01;;;;;;;0.50;0.50;;;;;;;3.40;100.00;96092.97;29395;213;63009;-70
2024/03/25 00:28:33;;;;;;;0.60;0.60;;;;;;;3.39;100.00;96093.22;29395;199;63005;-68
2024/03/25 00:29:04;;;;;;;0.60;0.60;;;;;;;3.38;100.00;96100.47;29395;238;63009;-68
2024/03/25 00:29:39;;;;;;;0.60;0.60;;;;;;;3.35;100.00;96084.91;29395;224;63005;-68
2024/03/25 00:30:12;;;;;;;0.60;0.60;;;;;;;3.34;100.00;96094.03;29395;214;63018;-68
2024/03/25 00:30:44;;;;;;;0.60;0.60;;;;;;;3.32;100.00;96091.63;29395;328;63005;-67
2024/03/25 00:31:17;;;;;;;0.60;0.60;;;;;;;3.29;100.00;96094.00;29395;307;63009;-67
2024/03/25 00:31:48;;;;;;;0.60;0.60;;;;;;;3.29;100.00;96092.13;29394;293;64009;-67
2024/03/25 00:32:19;;;;;;;0.60;0.60;;;;;;;3.32;100.00;96096.16;29395;227;63009;-66
2024/03/25 00:32:50;;;;;;;0.62;0.62;;;;;;;3.36;100.00;96097.25;29395;225;63004;-66
2024/03/25 00:33:24;;;;;;;0.60;0.60;;;;;;;3.37;100.00;96086.25;29395;216;63009;-69
2024/03/25 00:33:55;;;;;;;0.60;0.60;;;;;;;3.43;100.00;96091.63;29395;231;63016;-67
2024/03/25 00:34:26;;;;;;;0.60;0.60;;;;;;;3.45;100.00;96092.19;29395;231;63009;-69
2024/03/25 00:34:57;;;;;;;0.60;0.60;;;;;;;3.44;99.88;96093.25;29395;280;63005;-67
2024/03/25 00:35:29;;;;;;;0.60;0.60;;;;;;;3.46;100.00;96091.91;29395;233;63009;-66
2024/03/25 00:36:00;;;;;;;0.60;0.60;;;;;;;3.49;99.70;96091.34;29395;232;63005;-68
2024/03/25 00:36:31;;;;;;;0.60;0.60;;;;;;;3.47;99.69;96084.63;29395;204;63009;-67
2024/03/25 00:37:03;;;;;;;0.60;0.60;;;;;;;3.43;99.52;96086.28;29394;240;64009;-68
2024/03/25 00:37:35;;;;;;;0.60;0.60;;;;;;;3.40;99.96;96087.59;29394;226;64005;-66
2024/03/25 00:38:07;;;;;;;0.60;0.60;;;;;;;3.39;100.00;96094.03;29394;322;64009;-63
2024/03/25 00:38:38;;;;;;;0.60;0.60;;;;;;;3.37;100.00;96083.56;29395;274;63009;-52
2024/03/25 00:39:10;;;;;;;0.60;0.60;;;;;;;3.37;100.00;96093.50;29395;222;63004;-66
2024/03/25 00:39:42;;;;;;;0.55;0.55;;;;;;;3.35;100.00;96084.91;29395;199;63009;-64
2024/03/25 00:40:13;;;;;;;0.60;0.60;;;;;;;3.44;99.92;96090.56;29395;210;63004;-54
2024/03/25 00:40:44;;;;;;;0.60;0.60;;;;;;;3.53;98.74;96088.94;29395;270;63009;-53
2024/03/25 00:41:16;;;;;;;0.60;0.60;;;;;;;3.53;98.01;96081.69;29395;235;63004;-68
2024/03/25 00:41:47;;;;;;;0.70;0.70;;;;;;;3.55;98.67;96089.47;29395;263;63008;-66
2024/03/25 00:42:19;;;;;;;0.55;0.55;;;;;;;3.57;98.14;96081.97;29395;216;63005;-66
2024/03/25 00:42:50;;;;;;;0.60;0.60;;;;;;;3.57;98.23;96087.34;29394;208;64014;-65
2024/03/25 00:43:22;;;;;;;0.60;0.60;;;;;;;3.55;98.36;96089.47;29395;221;63005;-67
2024/03/25 00:43:53;;;;;;;0.60;0.60;;;;;;;3.51;98.37;96083.84;29395;240;63009;-68
2024/03/25 00:44:24;;;;;;;0.60;0.60;;;;;;;3.48;98.41;96083.56;29395;216;63005;-67
2024/03/25 00:44:55;;;;;;;0.50;0.50;;;;;;;3.43;99.04;96087.06;29395;252;63009;-67
2024/03/25 00:45:30;;;;;;;0.60;0.60;;;;;;;3.40;99.15;96086.81;29395;258;63005;-67
2024/03/25 00:46:02;;;;;;;0.60;0.60;;;;;;;3.36;99.76;96092.69;29395;252;63009;-53
2024/03/25 00:46:36;;;;;;;0.60;0.60;;;;;;;3.39;100.00;96086.00;29395;240;63004;-54
2024/03/25 00:47:08;;;;;;;0.60;0.60;;;;;;;3.41;99.82;96083.03;29395;202;63013;-67
2024/03/25 00:47:44;;;;;;;0.60;0.60;;;;;;;3.43;99.82;96092.44;29394;199;64009;-61
2024/03/25 00:48:15;;;;;;;0.60;0.60;;;;;;;3.44;98.92;96088.69;29395;202;63018;-53
2024/03/25 00:48:48;;;;;;;0.60;0.60;;;;;;;3.43;98.84;96091.63;29394;198;64008;-67
2024/03/25 00:49:21;;;;;;;0.60;0.60;;;;;;;3.39;98.57;96085.19;29394;199;64013;-53
2024/03/25 00:49:53;;;;;;;0.60;0.60;;;;;;;3.35;99.04;96090.28;29395;301;63019;-67
2024/03/25 00:50:24;;;;;;;0.60;0.60;;;;;;;3.33;99.47;96087.84;29395;296;63009;-66
2024/03/25 00:50:55;;;;;;;0.60;0.60;;;;;;;3.32;99.55;96086.25;29395;218;63005;-66
2024/03/25 00:51:26;;;;;;;0.60;0.60;;;;;;;3.35;99.92;96091.09;29395;202;63025;-67
2024/03/25 00:51:58;;;;;;;0.60;0.60;;;;;;;3.39;99.83;96085.19;29395;207;63005;-55
2024/03/25 00:52:30;;;;;;;0.60;0.60;;;;;;;3.46;98.91;96088.41;29395;204;63009;-66
2024/03/25 00:53:02;;;;;;;0.60;0.60;;;;;;;3.47;98.30;96090.00;29394;202;64009;-67
2024/03/25 00:53:33;;;;;;;0.60;0.60;;;;;;;3.46;98.49;96091.09;29395;202;63019;-68
2024/03/25 00:54:07;;;;;;;0.60;0.60;;;;;;;3.48;98.41;96088.94;29395;214;63008;-64
2024/03/25 00:54:44;;;;;;;0.60;0.60;;;;;;;3.53;98.28;96091.63;29395;274;63009;-67
2024/03/25 00:55:15;;;;;;;0.60;0.60;;;;;;;3.49;98.29;96085.97;29394;407;64009;-67
2024/03/25 00:55:47;;;;;;;0.60;0.60;;;;;;;3.46;98.19;96085.75;29395;210;63008;-69
2024/03/25 00:56:18;;;;;;;0.60;0.60;;;;;;;3.42;98.32;96081.97;29395;228;63004;-54
2024/03/25 00:56:51;;;;;;;0.60;0.60;;;;;;;3.39;98.69;96080.63;29395;341;63008;-66
2024/03/25 00:57:22;;;;;;;0.55;0.55;;;;;;;3.39;99.26;96080.63;29395;203;63005;-68
2024/03/25 00:57:54;;;;;;;0.60;0.60;;;;;;;3.37;99.91;96078.22;29395;266;63009;-67
2024/03/25 00:58:25;;;;;;;0.60;0.60;;;;;;;3.36;99.58;96081.97;29394;372;64009;-67
2024/03/25 00:59:02;;;;;;;0.60;0.60;;;;;;;3.35;100.00;96080.34;29395;208;63016;-68
2024/03/25 00:59:33;;;;;;;0.55;0.55;;;;;;;3.31;100.00;96084.63;29395;208;63005;-53
2024/03/25 01:00:06;;;;;;;0.60;0.60;;;;;;;3.31;100.00;96078.47;29394;228;64009;-65
2024/03/25 01:00:38;;;;;;;0.60;0.60;;;;;;;3.35;100.00;96079.56;29395;214;63004;-53
2024/03/25 01:01:09;;;;;;;0.60;0.60;;;;;;;3.33;99.74;96077.13;29395;225;63009;-65
2024/03/25 01:01:41;;;;;;;0.60;0.60;;;;;;;3.32;99.15;96075.53;29395;269;63004;-69
2024/03/25 01:02:12;;;;;;;0.60;0.60;;;;;;;3.30;99.02;96077.66;29395;239;63009;-54
2024/03/25 01:02:44;;;;;;;0.60;0.60;;;;;;;3.28;98.75;96082.50;29395;202;63012;-54
2024/03/25 01:03:15;;;;;;;0.60;0.60;;;;;;;3.27;99.65;96080.88;29394;230;64013;-67
2024/03/25 01:03:48;;;;;;;0.60;0.60;;;;;;;3.26;99.54;96076.59;29395;234;63005;-54
2024/03/25 01:04:21;;;;;;;0.60;0.60;;;;;;;3.27;100.00;96080.06;29395;215;63009;-66
2024/03/25 01:04:52;;;;;;;0.60;0.60;;;;;;;3.26;100.00;96076.59;29394;238;64009;-53
2024/03/25 01:05:24;;;;;;;0.60;0.60;;;;;;;3.24;100.00;96083.28;29395;237;63009;-53
2024/03/25 01:05:55;;;;;;;0.60;0.60;;;;;;;3.21;100.00;96073.88;29395;228;63014;-67
2024/03/25 01:06:27;;;;;;;0.60;0.60;;;;;;;3.23;100.00;96069.06;29395;218;63009;-54
2024/03/25 01:06:58;;;;;;;0.60;0.60;;;;;;;3.24;100.00;96070.69;29395;231;63005;-66
2024/03/25 01:07:29;;;;;;;0.60;0.60;;;;;;;3.24;100.00;96073.38;29395;199;63009;-69
2024/03/25 01:08:00;;;;;;;0.60;0.60;;;;;;;3.26;100.00;96073.91;29395;277;63004;-67
2024/03/25 01:08:34;;;;;;;0.60;0.60;;;;;;;3.27;100.00;96072.03;29394;263;64013;-67
2024/03/25 01:09:07;;;;;;;0.60;0.60;;;;;;;3.25;100.00;96074.97;29395;206;63004;-53
2024/03/25 01:09:38;;;;;;;0.60;0.60;;;;;;;3.24;100.00;96075.25;29395;238;63009;-67
2024/03/25 01:10:10;;;;;;;0.60;0.60;;;;;;;3.22;100.00;96070.13;29394;213;64004;-67
2024/03/25 01:10:41;;;;;;;0.60;0.60;;;;;;;3.25;100.00;96074.97;29395;368;63008;-68
2024/03/25 01:11:14;;;;;;;0.60;0.60;;;;;;;3.26;100.00;96076.59;29395;210;63017;-67
2024/03/25 01:11:48;;;;;;;0.60;0.60;;;;;;;3.24;100.00;96073.38;29395;206;63018;-67
2024/03/25 01:12:20;;;;;;;0.60;0.60;;;;;;;3.28;100.00;96079.00;29394;203;64005;-65
2024/03/25 01:12:51;;;;;;;0.60;0.60;;;;;;;3.27;100.00;96064.78;29395;197;63009;-54
2024/03/25 01:13:22;;;;;;;0.60;0.60;;;;;;;3.28;100.00;96074.44;29394;227;64009;-68
2024/03/25 01:13:54;;;;;;;0.60;0.60;;;;;;;3.29;100.00;96075.25;29394;204;64013;-67
2024/03/25 01:14:26;;;;;;;0.60;0.60;;;;;;;3.29;100.00;96070.69;29395;236;63005;-69
2024/03/25 01:14:57;;;;;;;0.60;0.60;;;;;;;3.31;100.00;96071.22;29395;205;63009;-53
2024/03/25 01:15:28;;;;;;;0.60;0.60;;;;;;;3.33;100.00;96071.78;29394;230;64009;-53
2024/03/25 01:15:59;;;;;;;0.60;0.60;;;;;;;3.31;100.00;96068.56;29395;271;63009;-54
2024/03/25 01:16:32;;;;;;;0.60;0.60;;;;;;;3.34;100.00;96065.34;29395;197;63004;-66
2024/03/25 01:17:04;;;;;;;0.60;0.60;;;;;;;3.43;99.40;96068.31;29395;206;63023;-68
2024/03/25 01:17:35;;;;;;;0.60;0.60;;;;;;;3.40;98.90;96066.16;29395;208;63004;-66
2024/03/25 01:18:09;;;;;;;0.60;0.60;;;;;;;3.39;99.17;96063.75;29394;211;64013;-67
2024/03/25 01:18:41;;;;;;;0.60;0.60;;;;;;;3.34;99.32;96062.66;29394;234;63999;-54
2024/03/25 01:19:12;;;;;;;0.60;0.60;;;;;;;3.32;99.63;96059.44;29395;220;63009;-68
2024/03/25 01:19:43;;;;;;;0.60;0.60;;;;;;;3.25;99.78;96061.56;29395;327;63005;-69
2024/03/25 01:20:14;;;;;;;0.60;0.60;;;;;;;3.25;99.87;96061.56;29395;202;63009;-68
2024/03/25 01:20:47;;;;;;;0.60;0.60;;;;;;;3.29;100.00;96065.34;29394;320;64009;-53
2024/03/25 01:21:22;;;;;;;0.50;0.50;;;;;;;3.28;100.00;96069.09;29395;229;63009;-68
2024/03/25 01:21:55;;;;;;;0.52;0.52;;;;;;;3.29;100.00;96062.66;29395;209;63009;-67
2024/03/25 01:22:26;;;;;;;0.60;0.60;;;;;;;3.28;100.00;96062.91;29395;281;63009;-66
2024/03/25 01:22:57;;;;;;;0.60;0.60;;;;;;;3.26;100.00;96063.19;29395;408;63011;-68
2024/03/25 01:23:29;;;;;;;0.60;0.60;;;;;;;3.24;100.00;96062.63;29395;242;63018;-67
2024/03/25 01:24:00;;;;;;;0.60;0.60;;;;;;;3.23;100.00;96057.53;29395;197;63010;-67
2024/03/25 01:24:32;;;;;;;0.60;0.60;;;;;;;3.21;100.00;96062.38;29395;216;63009;-67
2024/03/25 01:25:06;;;;;;;0.60;0.60;;;;;;;3.20;100.00;96066.13;29395;247;63000;-53
2024/03/25 01:25:38;;;;;;;0.60;0.60;;;;;;;3.18;100.00;96058.34;29395;230;63008;-67
2024/03/25 01:26:09;;;;;;;0.60;0.60;;;;;;;3.17;100.00;96056.72;29394;304;64008;-68
2024/03/25 01:26:41;;;;;;;0.60;0.60;;;;;;;3.17;100.00;96051.38;29395;283;63009;-69
2024/03/25 01:27:14;;;;;;;0.60;0.60;;;;;;;3.16;100.00;96055.13;29395;233;63010;-53
2024/03/25 01:27:46;;;;;;;0.60;0.60;;;;;;;3.15;100.00;96061.53;29395;268;63009;-68
2024/03/25 01:28:18;;;;;;;0.50;0.50;;;;;;;3.16;100.00;96057.00;29395;228;63005;-53
2024/03/25 01:28:49;;;;;;;0.60;0.60;;;;;;;3.15;100.00;96052.69;29395;198;63009;-68
2024/03/25 01:29:22;;;;;;;0.50;0.50;;;;;;;3.14;100.00;96051.09;29395;258;63010;-54
2024/03/25 01:29:53;;;;;;;0.80;0.80;;;;;;;3.13;100.00;96055.66;29395;238;63009;-54
2024/03/25 01:30:29;;;;;;;0.60;0.60;;;;;;;3.12;100.00;96053.25;29395;239;63005;-69
2024/03/25 01:31:02;;;;;;;0.60;0.60;;;;;;;3.12;100.00;96054.03;29395;291;63009;-53
2024/03/25 01:31:34;;;;;;;0.50;0.50;;;;;;;3.10;100.00;96056.19;29394;358;64000;-70
2024/03/25 01:32:06;;;;;;;0.60;0.60;;;;;;;3.10;100.00;96053.53;29395;222;63009;-68
2024/03/25 01:32:38;;;;;;;0.60;0.60;;;;;;;3.07;100.00;96054.06;29394;233;64009;-67
2024/03/25 01:33:09;;;;;;;0.50;0.50;;;;;;;3.05;100.00;96053.50;29395;208;63008;-68
2024/03/25 01:33:40;;;;;;;0.60;0.60;;;;;;;3.05;100.00;96053.50;29395;258;63004;-66
2024/03/25 01:34:11;;;;;;;0.60;0.60;;;;;;;3.05;100.00;96047.34;29395;236;63009;-68
2024/03/25 01:34:43;;;;;;;0.60;0.60;;;;;;;3.04;100.00;96049.22;29395;206;63005;-68
2024/03/25 01:35:17;;;;;;;0.60;0.60;;;;;;;3.05;100.00;96056.19;29394;297;64014;-69
2024/03/25 01:35:48;;;;;;;0.60;0.60;;;;;;;3.04;100.00;96049.22;29394;232;64009;-68
2024/03/25 01:36:20;;;;;;;0.60;0.60;;;;;;;3.02;100.00;96048.69;29395;220;63009;-67
2024/03/25 01:36:52;;;;;;;0.60;0.60;;;;;;;3.00;100.00;96051.63;29395;209;63005;-68
2024/03/25 01:37:23;;;;;;;0.60;0.60;;;;;;;3.01;100.00;96052.44;29395;226;63009;-55
2024/03/25 01:37:54;;;;;;;0.60;0.60;;;;;;;3.00;100.00;96056.19;29394;239;64005;-70
2024/03/25 01:38:28;;;;;;;0.60;0.60;;;;;;;2.99;100.00;96052.69;29395;239;63009;-68
2024/03/25 01:38:59;;;;;;;0.60;0.60;;;;;;;2.99;100.00;96054.56;29395;232;63004;-66
2024/03/25 01:39:30;;;;;;;0.60;0.60;;;;;;;2.98;100.00;96053.75;29394;220;64013;-69
2024/03/25 01:40:04;;;;;;;0.60;0.60;;;;;;;2.98;100.00;96052.94;29394;225;64009;-52
2024/03/25 01:40:36;;;;;;;0.60;0.60;;;;;;;2.97;100.00;96052.16;29395;228;63008;-67
2024/03/25 01:41:12;;;;;;;0.60;0.60;;;;;;;2.98;100.00;96051.06;29395;265;63004;-68
2024/03/25 01:41:44;;;;;;;0.60;0.60;;;;;;;2.99;100.00;96051.88;29395;258;63009;-68
2024/03/25 01:42:15;;;;;;;0.60;0.60;;;;;;;2.98;100.00;96055.63;29395;210;63005;-68
2024/03/25 01:42:57;;;;;;;0.60;0.60;;;;;;;2.97;100.00;96054.03;29395;202;63009;-67
2024/03/25 01:43:31;;;;;;;0.60;0.60;;;;;;;2.96;100.00;96060.44;29395;214;63005;-67
2024/03/25 01:44:03;;;;;;;0.60;0.60;;;;;;;2.95;100.00;96054.28;29395;197;63009;-67
2024/03/25 01:44:35;;;;;;;0.60;0.60;;;;;;;2.95;100.00;96053.47;29394;255;64009;-67
2024/03/25 01:45:10;;;;;;;0.60;0.60;;;;;;;2.95;100.00;96053.47;29395;247;63009;-67
2024/03/25 01:45:42;;;;;;;0.60;0.60;;;;;;;2.93;100.00;96058.28;29395;221;63004;-68
2024/03/25 01:46:18;;;;;;;0.60;0.60;;;;;;;2.91;100.00;96057.75;29395;228;63009;-53
2024/03/25 01:46:52;;;;;;;0.60;0.60;;;;;;;2.90;100.00;96050.78;29395;236;63007;-67
2024/03/25 01:47:23;;;;;;;0.60;0.60;;;;;;;2.90;100.00;96050.78;29395;206;63009;-66
2024/03/25 01:47:56;;;;;;;0.60;0.60;;;;;;;2.90;100.00;96056.16;29395;206;63012;-69
2024/03/25 01:48:28;;;;;;;0.60;0.60;;;;;;;2.89;100.00;96052.66;29395;244;63017;-68
2024/03/25 01:48:59;;;;;;;0.60;0.60;;;;;;;2.90;100.00;96053.47;29395;225;63005;-69
2024/03/25 01:49:31;;;;;;;0.60;0.60;;;;;;;2.93;100.00;96055.63;29394;257;64009;-53
2024/03/25 01:50:03;;;;;;;0.60;0.60;;;;;;;3.01;100.00;96052.44;29394;231;64009;-53
2024/03/25 01:50:37;;;;;;;0.60;0.60;;;;;;;3.00;100.00;96056.19;29395;246;63014;-67
2024/03/25 01:51:10;;;;;;;0.60;0.60;;;;;;;2.99;100.00;96051.88;29395;202;63005;-67
2024/03/25 01:51:43;;;;;;;0.60;0.60;;;;;;;3.00;100.00;96056.97;29395;235;63009;-68
2024/03/25 01:52:14;;;;;;;0.60;0.60;;;;;;;3.00;100.00;96050.81;29395;332;63005;-66
2024/03/25 01:52:46;;;;;;;0.60;0.60;;;;;;;3.02;100.00;96062.06;29395;229;63009;-65
2024/03/25 01:53:17;;;;;;;0.50;0.50;;;;;;;3.03;100.00;96058.31;29395;321;63004;-54
2024/03/25 01:53:50;;;;;;;0.60;0.60;;;;;;;3.02;100.00;96048.69;29395;208;63009;-70
2024/03/25 01:54:21;;;;;;;0.60;0.60;;;;;;;3.02;100.00;96056.72;29395;210;63004;-68
2024/03/25 01:54:54;;;;;;;0.60;0.60;;;;;;;3.01;100.00;96057.78;29394;232;64013;-67
2024/03/25 01:55:28;;;;;;;0.55;0.55;;;;;;;3.01;100.00;96049.75;29394;196;63996;-69
2024/03/25 01:56:01;;;;;;;0.60;0.60;;;;;;;3.02;100.00;96054.03;29395;262;63008;-68
2024/03/25 01:56:34;;;;;;;0.60;0.60;;;;;;;3.01;100.00;96055.09;29395;235;63005;-67
2024/03/25 01:57:06;;;;;;;0.60;0.60;;;;;;;3.00;100.00;96056.19;29395;224;63009;-53
2024/03/25 01:57:38;;;;;;;0.60;0.60;;;;;;;2.97;100.00;96059.38;29394;205;64009;-68
2024/03/25 01:58:10;;;;;;;0.60;0.60;;;;;;;2.96;100.00;96055.09;29395;211;63009;-54
2024/03/25 01:58:42;;;;;;;0.60;0.60;;;;;;;2.94;100.00;96057.22;29395;247;63005;-53
2024/03/25 01:59:19;;;;;;;0.60;0.60;;;;;;;2.92;100.00;96054.81;29395;214;63009;-68
2024/03/25 01:59:50;;;;;;;0.60;0.60;;;;;;;2.90;100.00;96056.16;29395;236;63005;-69
2024/03/25 02:00:24;;;;;;;0.60;0.60;;;;;;;2.88;100.00;96060.97;29395;202;63009;-69
2024/03/25 02:00:56;;;;;;;0.60;0.60;;;;;;;2.88;100.00;96052.91;29395;206;63004;-68
2024/03/25 02:01:29;;;;;;;0.60;0.60;;;;;;;2.90;100.00;96061.50;29395;207;63009;-54
2024/03/25 02:02:01;;;;;;;0.60;0.60;;;;;;;2.90;100.00;96056.16;29395;344;63004;-53
2024/03/25 02:02:37;;;;;;;0.60;0.60;;;;;;;2.91;100.00;96052.41;29395;225;63008;-53
2024/03/25 02:03:09;;;;;;;0.60;0.60;;;;;;;2.90;100.00;96058.81;29394;222;64008;-68
2024/03/25 02:03:43;;;;;;;0.60;0.60;;;;;;;2.89;100.00;96065.25;29395;212;63021;-69
2024/03/25 02:04:14;;;;;;;0.60;0.60;;;;;;;2.88;100.00;96064.44;29395;207;63005;-69
2024/03/25 02:04:45;;;;;;;0.60;0.60;;;;;;;2.86;100.00;96061.22;29395;199;63009;-69
2024/03/25 02:05:21;;;;;;;0.60;0.60;;;;;;;2.84;100.00;96058.00;29395;237;63005;-69
2024/03/25 02:06:02;;;;;;;0.60;0.60;;;;;;;2.84;100.00;96059.87;29395;236;63009;-68
2024/03/25 02:06:36;;;;;;;0.60;0.60;;;;;;;2.86;100.00;96055.88;29395;280;63009;-68
2024/03/25 02:07:10;;;;;;;0.60;0.60;;;;;;;2.84;100.00;96058.00;29394;199;64013;-69
2024/03/25 02:07:43;;;;;;;0.60;0.60;;;;;;;2.84;100.00;96057.19;29395;199;63007;-53
2024/03/25 02:08:15;;;;;;;0.60;0.60;;;;;;;2.84;100.00;96062.56;29395;217;63009;-69
2024/03/25 02:08:49;;;;;;;0.60;0.60;;;;;;;2.84;100.00;96063.34;29395;203;63004;-54
2024/03/25 02:09:22;;;;;;;0.60;0.60;;;;;;;2.84;100.00;96060.69;29395;227;63017;-54
2024/03/25 02:09:54;;;;;;;0.60;0.60;;;;;;;2.85;100.00;96053.44;29394;209;64009;-53
2024/03/25 02:10:26;;;;;;;0.60;0.60;;;;;;;2.87;100.00;96067.37;29395;221;63008;-53
2024/03/25 02:10:59;;;;;;;0.60;0.60;;;;;;;2.88;100.00;96058.28;29395;197;63005;-69
2024/03/25 02:11:32;;;;;;;0.60;0.60;;;;;;;2.88;100.00;96058.28;29395;209;63009;-68
2024/03/25 02:12:04;;;;;;;0.60;0.60;;;;;;;2.88;100.00;96060.97;29395;240;63005;-53
2024/03/25 02:12:40;;;;;;;0.60;0.60;;;;;;;2.88;100.00;96058.28;29395;224;63009;-67
2024/03/25 02:13:11;;;;;;;0.60;0.60;;;;;;;2.91;100.00;96065.78;29395;202;63005;-67
2024/03/25 02:13:42;;;;;;;0.60;0.60;;;;;;;2.94;100.00;96062.59;29395;221;63009;-67
2024/03/25 02:14:14;;;;;;;0.60;0.60;;;;;;;2.95;100.00;96053.47;29394;236;64009;-68
2024/03/25 02:14:49;;;;;;;0.60;0.60;;;;;;;2.95;100.00;96051.59;29394;233;64013;-69
2024/03/25 02:15:21;;;;;;;0.60;0.60;;;;;;;2.91;100.00;96052.41;29395;227;63004;-68
2024/03/25 02:15:54;;;;;;;0.60;0.60;;;;;;;2.91;100.00;96055.06;29395;262;63009;-54
2024/03/25 02:16:26;;;;;;;0.60;0.60;;;;;;;2.90;100.00;96061.50;29395;197;63004;-54
2024/03/25 02:16:57;;;;;;;0.60;0.60;;;;;;;2.90;100.00;96059.63;29395;210;63009;-64
2024/03/25 02:17:28;;;;;;;0.60;0.60;;;;;;;2.97;100.00;96067.41;29395;223;63008;-66
2024/03/25 02:17:59;;;;;;;0.60;0.60;;;;;;;2.96;100.00;96052.41;29395;282;63011;-69
2024/03/25 02:18:35;;;;;;;0.60;0.60;;;;;;;2.95;100.00;96059.66;29395;240;63005;-67
2024/03/25 02:19:08;;;;;;;0.60;0.60;;;;;;;2.96;100.00;96055.09;29395;199;63009;-54
2024/03/25 02:19:41;;;;;;;0.60;0.60;;;;;;;2.96;100.00;96057.78;29394;197;64009;-66
2024/03/25 02:20:15;;;;;;;0.60;0.60;;;;;;;2.97;100.00;96062.06;29395;218;63009;-69
2024/03/25 02:20:47;;;;;;;0.60;0.60;;;;;;;3.00;100.00;96062.34;29395;215;63005;-67
2024/03/25 02:21:18;;;;;;;0.60;0.60;;;;;;;3.01;100.00;96053.22;29395;204;63009;-53
2024/03/25 02:21:50;;;;;;;0.60;0.60;;;;;;;3.02;100.00;96054.84;29395;305;63005;-54
2024/03/25 02:22:21;;;;;;;0.60;0.60;;;;;;;3.00;100.00;96056.97;29395;204;63027;-53
2024/03/25 02:22:52;;;;;;;0.60;0.60;;;;;;;3.00;100.00;96056.97;29395;216;63004;-67
2024/03/25 02:23:24;;;;;;;0.60;0.60;;;;;;;3.01;100.00;96057.78;29395;344;63009;-68
2024/03/25 02:23:59;;;;;;;0.60;0.60;;;;;;;3.01;100.00;96061.28;29395;209;63004;-68
2024/03/25 02:24:33;;;;;;;0.60;0.60;;;;;;;3.01;100.00;96057.78;29395;213;63009;-54
2024/03/25 02:25:09;;;;;;;0.60;0.60;;;;;;;2.99;100.00;96055.38;29394;223;64008;-54
2024/03/25 02:25:43;;;;;;;0.60;0.60;;;;;;;2.98;100.00;96056.44;29394;267;64013;-53
2024/03/25 02:26:14;;;;;;;0.60;0.60;;;;;;;2.99;100.00;96051.88;29395;294;63005;-54
2024/03/25 02:26:46;;;;;;;0.60;0.60;;;;;;;3.01;100.00;96047.06;29395;199;63009;-53
2024/03/25 02:27:20;;;;;;;0.60;0.60;;;;;;;3.01;100.00;96052.44;29395;229;63005;-68
2024/03/25 02:27:54;;;;;;;0.60;0.60;;;;;;;3.00;100.00;96053.50;29395;225;63009;-54
2024/03/25 02:28:26;;;;;;;0.60;0.60;;;;;;;3.00;100.00;96056.19;29395;207;63005;-70
2024/03/25 02:28:57;;;;;;;0.60;0.60;;;;;;;2.99;100.00;96050.00;29395;199;63009;-54
2024/03/25 02:29:35;;;;;;;0.60;0.60;;;;;;;2.98;100.00;96052.94;29395;304;63005;-54
2024/03/25 02:30:12;;;;;;;0.60;0.60;;;;;;;3.00;100.00;96056.19;29394;229;64013;-53
2024/03/25 02:30:44;;;;;;;0.50;0.50;;;;;;;3.02;100.00;96054.03;29394;242;64009;-67
2024/03/25 02:31:16;;;;;;;0.60;0.60;;;;;;;3.00;100.00;96056.19;29395;225;63009;-67
2024/03/25 02:31:48;;;;;;;0.60;0.60;;;;;;;3.01;100.00;96055.09;29395;231;63004;-69
2024/03/25 02:32:19;;;;;;;0.60;0.60;;;;;;;3.03;100.00;96055.66;29395;253;63009;-69
2024/03/25 02:32:53;;;;;;;0.60;0.60;;;;;;;3.03;100.00;96052.97;29395;221;63004;-67
2024/03/25 02:33:24;;;;;;;0.60;0.60;;;;;;;3.04;100.00;96051.91;29395;220;63008;-68
2024/03/25 02:33:56;;;;;;;0.60;0.60;;;;;;;3.06;100.00;96049.75;29395;208;63005;-53
2024/03/25 02:34:27;;;;;;;0.60;0.60;;;;;;;3.07;100.00;96050.56;29395;227;63009;-68